createdAt,value
2022-10-02T00:00:31.599Z,14.65
2022-10-02T00:03:14.259Z,14.69
2022-10-02T00:05:59.002Z,14.71
2022-10-02T00:08:45.408Z,14.75
2022-10-02T00:11:19.326Z,14.80
2022-10-02T00:13:51.855Z,14.83
2022-10-02T00:16:41.249Z,14.86
2022-10-02T00:19:18.596Z,14.89
2022-10-02T00:22:14.264Z,14.91
2022-10-02T00:24:47.323Z,14.95
2022-10-02T00:27:38.746Z,14.97
2022-10-02T00:30:06.138Z,14.98
2022-10-02T00:32:51.064Z,15.01
2022-10-02T00:35:24.422Z,15.01
2022-10-02T00:38:03.685Z,15.03
2022-10-02T00:41:02.139Z,15.05
2022-10-02T00:43:56.898Z,15.03
2022-10-02T00:46:35.344Z,15.02
2022-10-02T00:49:12.422Z,15.01
2022-10-02T00:51:55.630Z,15.01
2022-10-02T00:54:51.130Z,15.03
2022-10-02T00:57:29.891Z,15.04
2022-10-02T01:00:06.032Z,15.07
2022-10-02T01:02:58.699Z,15.09
2022-10-02T01:05:27.255Z,15.08
2022-10-02T01:07:55.161Z,15.07
2022-10-02T01:10:25.415Z,15.08
2022-10-02T01:12:56.045Z,15.11
2022-10-02T01:15:28.105Z,15.16
2022-10-02T01:17:55.318Z,15.20
2022-10-02T01:20:34.644Z,15.22
2022-10-02T01:23:08.640Z,15.22
2022-10-02T01:25:35.733Z,15.23
2022-10-02T01:28:02.532Z,15.22
2022-10-02T01:30:29.921Z,15.20
2022-10-02T01:32:58.859Z,15.17
2022-10-02T01:35:31.549Z,15.15
2022-10-02T01:37:59.751Z,15.13
2022-10-02T01:40:31.918Z,15.09
2022-10-02T01:43:09.047Z,15.06
2022-10-02T01:45:54.268Z,15.03
2022-10-02T01:48:42.630Z,15.01
2022-10-02T01:51:21.821Z,14.96
2022-10-02T01:53:58.816Z,14.93
2022-10-02T01:56:43.431Z,14.92
2022-10-02T01:59:16.690Z,14.87
2022-10-02T02:02:03.753Z,14.85
2022-10-02T02:05:03.730Z,14.80
2022-10-02T02:07:58.468Z,14.78
2022-10-02T02:10:45.082Z,14.75
2022-10-02T02:13:26.606Z,14.71
2022-10-02T02:16:23.018Z,14.70
2022-10-02T02:18:52.930Z,14.66
2022-10-02T02:21:46.629Z,14.65
2022-10-02T02:24:25.762Z,14.65
2022-10-02T02:26:55.505Z,14.62
2022-10-02T02:29:23.886Z,14.61
2022-10-02T02:31:58.062Z,14.60
2022-10-02T02:34:46.680Z,14.60
2022-10-02T02:37:19.057Z,14.59
2022-10-02T02:39:46.867Z,14.57
2022-10-02T02:42:17.780Z,14.56
2022-10-02T02:45:04.742Z,14.54
2022-10-02T02:47:42.102Z,14.53
2022-10-02T02:50:20.951Z,14.52
2022-10-02T02:52:58.487Z,14.51
2022-10-02T02:55:31.291Z,14.50
2022-10-02T02:58:24.387Z,14.49
2022-10-02T03:00:51.109Z,14.48
2022-10-02T03:03:18.097Z,14.46
2022-10-02T03:05:48.141Z,14.47
2022-10-02T03:08:29.124Z,14.45
2022-10-02T03:11:19.080Z,14.43
2022-10-02T03:13:51.833Z,14.43
2022-10-02T03:16:22.146Z,14.41
2022-10-02T03:18:51.837Z,14.40
2022-10-02T03:21:35.724Z,14.38
2022-10-02T03:24:17.649Z,14.36
2022-10-02T03:26:53.752Z,14.36
2022-10-02T03:29:26.646Z,14.33
2022-10-02T03:31:54.143Z,14.33
2022-10-02T03:34:21.296Z,14.33
2022-10-02T03:36:48.050Z,14.31
2022-10-02T03:39:30.215Z,14.31
2022-10-02T03:41:57.020Z,14.28
2022-10-02T03:44:23.959Z,14.27
2022-10-02T03:46:50.776Z,14.26
2022-10-02T03:49:17.575Z,14.24
2022-10-02T03:51:44.396Z,14.23
2022-10-02T03:54:17.913Z,14.23
2022-10-02T03:56:56.739Z,14.22
2022-10-02T03:59:40.430Z,14.21
2022-10-02T04:02:13.380Z,14.21
2022-10-02T04:04:49.981Z,14.22
2022-10-02T04:07:22.924Z,14.22
2022-10-02T04:10:22.101Z,14.25
2022-10-02T04:12:51.052Z,14.26
2022-10-02T04:15:23.578Z,14.29
2022-10-02T04:17:58.931Z,14.28
2022-10-02T04:20:31.660Z,14.31
2022-10-02T04:23:05.415Z,14.31
2022-10-02T04:25:39.485Z,14.30
2022-10-02T04:28:08.309Z,14.33
2022-10-02T04:30:35.080Z,14.33
2022-10-02T04:33:12.433Z,14.36
2022-10-02T04:36:02.684Z,14.36
2022-10-02T04:38:45.613Z,14.34
2022-10-02T04:41:47.073Z,14.34
2022-10-02T04:44:36.597Z,14.36
2022-10-02T04:47:14.208Z,14.39
2022-10-02T04:49:54.656Z,14.40
2022-10-02T04:52:35.167Z,14.45
2022-10-02T04:55:23.563Z,14.46
2022-10-02T04:58:08.492Z,14.49
2022-10-02T05:00:57.920Z,14.54
2022-10-02T05:03:58.724Z,14.58
2022-10-02T05:06:54.884Z,14.62
2022-10-02T05:09:28.422Z,14.65
2022-10-02T05:12:39.367Z,14.70
2022-10-02T05:15:15.572Z,14.72
2022-10-02T05:18:14.586Z,14.75
2022-10-02T05:21:02.500Z,14.79
2022-10-02T05:23:50.996Z,14.82
2022-10-02T05:26:38.720Z,14.86
2022-10-02T05:29:24.045Z,14.88
2022-10-02T05:32:07.571Z,14.89
2022-10-02T05:34:45.477Z,14.89
2022-10-02T05:37:27.384Z,14.88
2022-10-02T05:40:17.825Z,14.87
2022-10-02T05:42:52.261Z,14.86
2022-10-02T05:45:27.465Z,14.87
2022-10-02T05:48:03.604Z,14.87
2022-10-02T05:50:34.868Z,14.88
2022-10-02T05:53:35.409Z,14.91
2022-10-02T05:56:09.140Z,14.93
2022-10-02T05:58:48.368Z,14.95
2022-10-02T06:01:23.362Z,14.95
2022-10-02T06:04:13.531Z,14.95
2022-10-02T06:06:51.623Z,14.95
2022-10-02T06:09:22.961Z,14.96
2022-10-02T06:11:59.921Z,15.02
2022-10-02T06:14:47.327Z,15.11
2022-10-02T06:17:43.538Z,15.18
2022-10-02T06:20:21.066Z,15.24
2022-10-02T06:22:59.355Z,15.27
2022-10-02T06:25:31.083Z,15.28
2022-10-02T06:28:02.810Z,15.31
2022-10-02T06:30:32.981Z,15.37
2022-10-02T06:33:09.853Z,15.44
2022-10-02T06:35:58.600Z,15.48
2022-10-02T06:38:45.208Z,15.49
2022-10-02T06:41:20.543Z,15.47
2022-10-02T06:44:05.413Z,15.48
2022-10-02T06:46:43.017Z,15.53
2022-10-02T06:49:46.420Z,15.63
2022-10-02T06:52:38.336Z,15.74
2022-10-02T06:55:35.560Z,15.84
2022-10-02T06:58:13.481Z,15.88
2022-10-02T07:00:48.475Z,15.90
2022-10-02T07:03:28.816Z,15.90
2022-10-02T07:06:25.968Z,15.89
2022-10-02T07:09:15.094Z,15.86
2022-10-02T07:11:53.928Z,15.91
2022-10-02T07:14:42.551Z,16.04
2022-10-02T07:17:22.447Z,16.19
2022-10-02T07:20:03.789Z,16.35
2022-10-02T07:23:15.092Z,16.68
2022-10-02T07:26:10.496Z,16.97
2022-10-02T07:29:06.467Z,17.22
2022-10-02T07:31:55.952Z,17.54
2022-10-02T07:34:40.642Z,17.84
2022-10-02T07:37:41.088Z,18.15
2022-10-02T07:40:29.623Z,18.29
2022-10-02T07:43:06.255Z,18.28
2022-10-02T07:45:37.326Z,18.25
2022-10-02T07:48:22.204Z,18.19
2022-10-02T07:51:06.283Z,18.12
2022-10-02T07:53:49.815Z,18.01
2022-10-02T07:56:21.708Z,17.95
2022-10-02T07:59:00.707Z,17.87
2022-10-02T08:01:50.998Z,17.85
2022-10-02T08:04:24.636Z,17.84
2022-10-02T08:06:54.846Z,17.84
2022-10-02T08:09:45.954Z,17.86
2022-10-02T08:12:40.953Z,17.86
2022-10-02T08:15:22.412Z,17.88
2022-10-02T08:18:29.910Z,17.90
2022-10-02T08:20:54.213Z,17.93
2022-10-02T08:23:21.066Z,17.99
2022-10-02T08:26:07.308Z,18.00
2022-10-02T08:28:49.288Z,18.01
2022-10-02T08:31:16.224Z,18.02
2022-10-02T08:33:45.819Z,18.06
2022-10-02T08:36:28.534Z,18.11
2022-10-02T08:39:00.670Z,18.17
2022-10-02T08:42:04.409Z,18.24
2022-10-02T08:44:49.048Z,18.34
2022-10-02T08:47:30.086Z,18.38
2022-10-02T08:50:21.986Z,18.38
2022-10-02T08:52:54.122Z,18.38
2022-10-02T08:55:50.368Z,18.38
2022-10-02T08:58:45.058Z,18.33
2022-10-02T09:01:27.185Z,18.27
2022-10-02T09:04:16.208Z,18.25
2022-10-02T09:07:30.700Z,18.27
2022-10-02T09:10:42.521Z,18.38
2022-10-02T09:13:41.239Z,18.46
2022-10-02T09:19:19.279Z,18.59
2022-10-02T09:22:01.740Z,18.61
2022-10-02T09:24:55.480Z,18.63
2022-10-02T09:27:37.808Z,18.65
2022-10-02T09:30:21.179Z,18.64
2022-10-02T09:33:20.610Z,18.64
2022-10-02T09:38:58.434Z,18.63
2022-10-02T09:41:47.179Z,18.67
2022-10-02T09:47:48.495Z,18.76
2022-10-02T09:50:30.392Z,18.81
2022-10-02T09:53:23.382Z,18.86
2022-10-02T09:56:22.270Z,18.95
2022-10-02T09:58:50.189Z,19.01
2022-10-02T10:01:30.319Z,19.08
2022-10-02T10:04:09.118Z,19.18
2022-10-02T10:06:39.612Z,19.27
2022-10-02T10:09:34.970Z,19.38
2022-10-02T10:12:10.833Z,19.45
2022-10-02T10:14:56.436Z,19.49
2022-10-02T10:17:45.756Z,19.52
2022-10-02T10:20:40.738Z,19.56
2022-10-02T10:23:24.463Z,19.59
2022-10-02T10:26:23.803Z,19.61
2022-10-02T10:28:50.505Z,19.65
2022-10-02T10:31:51.389Z,19.65
2022-10-02T10:34:55.459Z,19.71
2022-10-02T10:38:12.613Z,19.75
2022-10-02T10:41:28.028Z,19.79
2022-10-02T10:44:22.310Z,19.77
2022-10-02T10:47:24.705Z,19.80
2022-10-02T10:50:28.111Z,19.84
2022-10-02T10:53:21.240Z,19.87
2022-10-02T10:56:02.334Z,19.89
2022-10-02T10:59:06.935Z,19.89
2022-10-02T11:01:49.531Z,19.91
2022-10-02T11:04:27.658Z,19.90
2022-10-02T11:07:28.275Z,19.89
2022-10-02T11:10:07.669Z,19.95
2022-10-02T11:12:34.275Z,20.01
2022-10-02T11:15:31.922Z,20.07
2022-10-02T11:18:31.065Z,20.17
2022-10-02T11:21:19.986Z,20.26
2022-10-02T11:24:17.432Z,20.35
2022-10-02T11:27:23.830Z,20.41
2022-10-02T11:30:21.865Z,20.44
2022-10-02T11:33:15.094Z,20.43
2022-10-02T11:36:41.671Z,20.32
2022-10-02T11:39:15.513Z,20.12
2022-10-02T11:42:12.837Z,19.95
2022-10-02T11:44:52.470Z,19.82
2022-10-02T11:47:34.155Z,19.72
2022-10-02T11:50:37.991Z,19.62
2022-10-02T11:53:23.785Z,19.52
2022-10-02T11:56:15.319Z,19.47
2022-10-02T11:58:53.769Z,19.45
2022-10-02T12:01:45.300Z,19.45
2022-10-02T12:04:40.682Z,19.40
2022-10-02T12:07:18.683Z,19.37
2022-10-02T12:10:04.458Z,19.31
2022-10-02T12:12:54.701Z,19.23
2022-10-02T12:15:48.745Z,19.20
2022-10-02T12:18:43.570Z,19.17
2022-10-02T12:21:32.409Z,19.21
2022-10-02T12:24:31.982Z,19.27
2022-10-02T12:27:18.675Z,19.32
2022-10-02T12:30:07.058Z,19.41
2022-10-02T12:32:46.504Z,19.51
2022-10-02T12:35:20.505Z,19.62
2022-10-02T12:38:25.453Z,19.75
2022-10-02T12:40:58.697Z,19.80
2022-10-02T12:43:55.243Z,19.83
2022-10-02T12:46:45.941Z,19.87
2022-10-02T12:50:02.743Z,19.89
2022-10-02T12:52:40.468Z,19.89
2022-10-02T12:55:44.833Z,19.86
2022-10-02T12:58:25.612Z,19.85
2022-10-02T13:01:20.821Z,19.83
2022-10-02T13:04:47.630Z,19.80
2022-10-02T13:07:39.207Z,19.72
2022-10-02T13:10:41.193Z,19.70
2022-10-02T13:13:31.447Z,19.65
2022-10-02T13:16:07.308Z,19.66
2022-10-02T13:18:57.661Z,19.66
2022-10-02T13:21:50.846Z,19.65
2022-10-02T13:24:36.284Z,19.71
2022-10-02T13:27:28.263Z,19.75
2022-10-02T13:30:18.332Z,19.73
2022-10-02T13:32:56.973Z,19.77
2022-10-02T13:35:45.882Z,19.77
2022-10-02T13:38:20.752Z,19.77
2022-10-02T13:41:29.828Z,19.78
2022-10-02T13:44:18.356Z,19.84
2022-10-02T13:47:03.605Z,19.91
2022-10-02T13:49:33.452Z,19.96
2022-10-02T13:52:22.205Z,20.00
2022-10-02T13:55:00.190Z,20.05
2022-10-02T13:57:41.724Z,20.09
2022-10-02T14:00:33.801Z,20.10
2022-10-02T14:03:09.812Z,20.11
2022-10-02T14:05:57.817Z,20.11
2022-10-02T14:08:43.108Z,20.13
2022-10-02T14:11:49.113Z,20.14
2022-10-02T14:14:28.472Z,20.13
2022-10-02T14:17:25.781Z,20.16
2022-10-02T14:20:17.655Z,20.19
2022-10-02T14:23:12.913Z,20.24
2022-10-02T14:25:47.588Z,20.34
2022-10-02T14:28:35.797Z,20.45
2022-10-02T14:31:37.890Z,20.59
2022-10-02T14:34:05.231Z,20.67
2022-10-02T14:36:48.727Z,20.76
2022-10-02T14:39:34.274Z,20.81
2022-10-02T14:42:04.376Z,20.87
2022-10-02T14:45:06.667Z,20.77
2022-10-02T14:47:58.613Z,20.44
2022-10-02T14:51:06.689Z,20.07
2022-10-02T14:53:48.697Z,19.54
2022-10-02T14:56:38.629Z,19.16
2022-10-02T14:59:11.319Z,18.89
2022-10-02T15:01:47.679Z,18.67
2022-10-02T15:04:26.727Z,18.50
2022-10-02T15:06:53.368Z,18.32
2022-10-02T15:09:49.622Z,18.14
2022-10-02T15:12:19.829Z,18.01
2022-10-02T15:14:57.703Z,17.93
2022-10-02T15:18:00.254Z,17.86
2022-10-02T15:20:31.146Z,17.77
2022-10-02T15:23:00.357Z,17.74
2022-10-02T15:26:02.988Z,17.68
2022-10-02T15:28:41.046Z,17.63
2022-10-02T15:31:32.432Z,17.59
2022-10-02T15:34:29.623Z,17.53
2022-10-02T15:37:16.144Z,17.47
2022-10-02T15:39:51.543Z,17.43
2022-10-02T15:42:41.340Z,17.38
2022-10-02T15:45:33.676Z,17.37
2022-10-02T15:48:28.462Z,17.35
2022-10-02T15:51:05.511Z,17.35
2022-10-02T15:53:46.166Z,17.34
2022-10-02T15:56:45.190Z,17.33
2022-10-02T15:59:17.800Z,17.30
2022-10-02T16:01:59.031Z,17.30
2022-10-02T16:04:34.651Z,17.29
2022-10-02T16:07:22.141Z,17.28
2022-10-02T16:10:02.730Z,17.27
2022-10-02T16:12:41.700Z,17.26
2022-10-02T16:15:30.353Z,17.26
2022-10-02T16:18:41.326Z,17.25
2022-10-02T16:21:59.247Z,17.23
2022-10-02T16:25:02.915Z,17.23
2022-10-02T16:27:51.560Z,17.20
2022-10-02T16:30:21.184Z,17.19
2022-10-02T16:33:20.505Z,17.18
2022-10-02T16:35:50.145Z,17.17
2022-10-02T16:38:48.482Z,17.14
2022-10-02T16:41:15.800Z,17.12
2022-10-02T16:43:43.191Z,17.10
2022-10-02T16:46:12.359Z,17.08
2022-10-02T16:48:42.040Z,17.05
2022-10-02T16:51:30.782Z,17.00
2022-10-02T16:54:17.249Z,16.96
2022-10-02T16:56:56.986Z,16.95
2022-10-02T16:59:44.072Z,16.96
2022-10-02T17:02:19.205Z,16.98
2022-10-02T17:04:59.585Z,17.00
2022-10-02T17:07:52.816Z,17.01
2022-10-02T17:10:29.860Z,17.00
2022-10-02T17:13:07.140Z,17.03
2022-10-02T17:15:40.397Z,17.04
2022-10-02T17:18:15.024Z,17.07
2022-10-02T17:20:51.654Z,17.06
2022-10-02T17:23:25.017Z,17.05
2022-10-02T17:26:03.972Z,17.04
2022-10-02T17:28:53.284Z,16.97
2022-10-02T17:31:43.829Z,16.93
2022-10-02T17:34:30.000Z,16.88
2022-10-02T17:37:09.150Z,16.85
2022-10-02T17:39:56.400Z,16.81
2022-10-02T17:42:32.747Z,16.77
2022-10-02T17:45:17.812Z,16.72
2022-10-02T17:48:07.699Z,16.69
2022-10-02T17:51:01.704Z,16.64
2022-10-02T17:53:56.602Z,16.59
2022-10-02T17:56:51.885Z,16.55
2022-10-02T17:59:37.096Z,16.50
2022-10-02T18:02:25.065Z,16.47
2022-10-02T18:05:25.912Z,16.42
2022-10-02T18:08:18.783Z,16.39
2022-10-02T18:10:55.781Z,16.37
2022-10-02T18:13:31.217Z,16.36
2022-10-02T18:16:11.414Z,16.34
2022-10-02T18:18:40.634Z,16.35
2022-10-02T18:21:32.879Z,16.35
2022-10-02T18:24:08.573Z,16.36
2022-10-02T18:26:58.682Z,16.38
2022-10-02T18:29:47.688Z,16.39
2022-10-02T18:32:45.332Z,16.40
2022-10-02T18:35:35.201Z,16.41
2022-10-02T18:38:25.440Z,16.43
2022-10-02T18:41:05.174Z,16.45
2022-10-02T18:43:47.589Z,16.45
2022-10-02T18:46:23.415Z,16.46
2022-10-02T18:49:10.504Z,16.48
2022-10-02T18:51:46.240Z,16.48
2022-10-02T18:54:28.819Z,16.46
2022-10-02T18:57:07.651Z,16.41
2022-10-02T18:59:44.967Z,16.38
2022-10-02T19:02:38.992Z,16.33
2022-10-02T19:05:30.120Z,16.31
2022-10-02T19:08:02.736Z,16.27
2022-10-02T19:10:32.366Z,16.25
2022-10-02T19:13:28.632Z,16.20
2022-10-02T19:15:58.564Z,16.17
2022-10-02T19:18:29.618Z,16.13
2022-10-02T19:20:57.108Z,16.09
2022-10-02T19:23:23.738Z,16.06
2022-10-02T19:25:52.369Z,16.04
2022-10-02T19:28:23.158Z,16.00
2022-10-02T19:30:52.418Z,15.97
2022-10-02T19:33:32.109Z,15.93
2022-10-02T19:36:03.451Z,15.90
2022-10-02T19:38:38.457Z,15.89
2022-10-02T19:41:14.864Z,15.87
2022-10-02T19:43:48.720Z,15.84
2022-10-02T19:46:16.318Z,15.81
2022-10-02T19:48:43.661Z,15.80
2022-10-02T19:51:18.577Z,15.78
2022-10-02T19:53:52.921Z,15.78
2022-10-02T19:56:28.243Z,15.76
2022-10-02T19:59:14.387Z,15.74
2022-10-02T20:01:54.897Z,15.72
2022-10-02T20:04:24.490Z,15.69
2022-10-02T20:06:54.959Z,15.67
2022-10-02T20:09:31.227Z,15.64
2022-10-02T20:12:01.443Z,15.62
2022-10-02T20:14:37.184Z,15.60
2022-10-02T20:17:10.357Z,15.58
2022-10-02T20:19:45.179Z,15.55
2022-10-02T20:22:24.287Z,15.54
2022-10-02T20:24:53.825Z,15.52
2022-10-02T20:27:41.799Z,15.51
2022-10-02T20:30:17.643Z,15.50
2022-10-02T20:32:53.892Z,15.48
2022-10-02T20:35:25.584Z,15.47
2022-10-02T20:37:54.104Z,15.45
2022-10-02T20:40:32.796Z,15.44
2022-10-02T20:43:00.527Z,15.43
2022-10-02T20:45:44.683Z,15.41
2022-10-02T20:49:07.063Z,15.39
2022-10-02T20:51:52.619Z,15.37
2022-10-02T20:54:41.823Z,15.35
2022-10-02T20:57:49.514Z,15.31
2022-10-02T21:00:24.923Z,15.29
2022-10-02T21:03:44.832Z,15.27
2022-10-02T21:06:19.316Z,15.26
2022-10-02T21:09:05.245Z,15.24
2022-10-02T21:11:45.413Z,15.23
2022-10-02T21:14:46.297Z,15.21
2022-10-02T21:17:16.027Z,15.18
2022-10-02T21:20:04.661Z,15.17
2022-10-02T21:22:50.404Z,15.16
2022-10-02T21:25:44.452Z,15.17
2022-10-02T21:28:36.069Z,15.14
2022-10-02T21:31:21.597Z,15.14
2022-10-02T21:34:18.150Z,15.11
2022-10-02T21:37:06.881Z,15.09
2022-10-02T21:39:39.491Z,15.09
2022-10-02T21:42:21.296Z,15.07
2022-10-02T21:45:13.727Z,15.07
2022-10-02T21:47:49.994Z,15.06
2022-10-02T21:50:54.244Z,15.05
2022-10-02T21:54:06.485Z,15.03
2022-10-02T21:56:58.685Z,15.02
2022-10-02T21:59:49.725Z,15.01
2022-10-02T22:02:30.246Z,15.00
2022-10-02T22:05:19.636Z,15.00
2022-10-02T22:08:08.021Z,14.98
2022-10-02T22:10:43.993Z,14.99
2022-10-02T22:13:28.116Z,14.98
2022-10-02T22:16:04.318Z,14.98
2022-10-02T22:18:51.281Z,14.99
2022-10-02T22:21:20.713Z,14.99
2022-10-02T22:24:17.011Z,14.98
2022-10-02T22:27:11.604Z,14.97
2022-10-02T22:29:45.928Z,14.94
2022-10-02T22:32:45.340Z,14.93
2022-10-02T22:35:30.369Z,14.92
2022-10-02T22:38:11.005Z,14.92
2022-10-02T22:40:51.321Z,14.93
2022-10-02T22:43:32.327Z,14.92
2022-10-02T22:46:09.111Z,14.92
2022-10-02T22:48:47.348Z,14.90
2022-10-02T22:51:32.752Z,14.90
2022-10-02T22:54:05.678Z,14.88
2022-10-02T22:56:37.424Z,14.87
2022-10-02T22:59:30.572Z,14.86
2022-10-02T23:02:20.770Z,14.86
2022-10-02T23:05:00.179Z,14.91
2022-10-02T23:07:31.023Z,14.93
2022-10-02T23:10:01.896Z,14.94
2022-10-02T23:12:52.540Z,14.98
2022-10-02T23:15:51.594Z,15.02
2022-10-02T23:18:39.659Z,15.07
2022-10-02T23:21:25.091Z,15.09
2022-10-02T23:24:12.985Z,15.10
2022-10-02T23:26:46.953Z,15.09
2022-10-02T23:29:25.860Z,15.10
2022-10-02T23:31:59.278Z,15.07
2022-10-02T23:34:37.555Z,15.09
2022-10-02T23:37:23.893Z,15.08
2022-10-02T23:40:04.073Z,15.08
2022-10-02T23:42:45.576Z,15.07
2022-10-02T23:45:26.819Z,15.04
2022-10-02T23:47:58.653Z,15.03
2022-10-02T23:50:33.716Z,15.03
2022-10-02T23:53:18.312Z,15.02
2022-10-02T23:56:00.310Z,15.02
2022-10-02T23:58:39.965Z,15.00
